ZSPD Airport Information

Runway Information
Runway 16 Length 12467 ft width 197 ft
Elevation 13 ft Threshold 0 ft Heading 162
Runway 34 Length 12467 ft Width 197 ft
Elevation 13 ft Threshold 0 ft Heading 342
Runway 17 Length 13123 ft width 197 ft
Elevation 10 ft Threshold 0 ft Heading 162
Runway 35 Length 13123 ft Width 197 ft
Elevation 10 ft Threshold 0 ft Heading 342
Airport Frequencies
Type APP Name SHANGHAI A Frequency 119.75 MHZ
Type APP Name SHANGHAI A Frequency 120.3 MHZ
Type APP Name SHAINGHAI Frequency 121.3 MHZ
Type APP Name SHANGHAI A Frequency 123.8 MHZ
Type ATIS Name ATIS Frequency 127.85 MHZ
Type CLD Name DEL Frequency 121.95 MHZ
Type GND Name GND WEST Frequency 121.65 MHZ
Type GND Name GND EAST Frequency 121.8 MHZ
Type TWR Name TWR EAST Frequency 118.4 MHZ
Type TWR Name TWR WEST Frequency 118.8 MHZ
Airport Navaids
Type VOR-DME Name Hengsha Frequency 114400 KHZ
Type VOR-DME Name Nanhui Frequency 114600 KHZ
Type VOR-DME Name Liuzao Frequency 109400 KHZ
Type VOR-DME Name Pudong Frequency 116900 KHZ
Type VOR-DME Name Shuyuan Frequency 113600 KHZ
Airport Weather Information & NOTAM
ADDS - METARS form results

(2226 UTC 01 August 2021)
Data provider http://aviationweather.gov/metar/data/
 
METAR text: ZSPD 012200Z 06003MPS 030V090 9999 BKN008 27/26 Q1000 BECMG TL2330 BKN011
Conditions at: ZSPD (SHANGHAI/PUDONG , CN) observed 2200 UTC 01 August 2021
Temperature: 27.0°C (81°F)
Dewpoint: 26.0°C (79°F) [RH = 94%]
Pressure (altimeter): 29.53 inches Hg (1000.0 mb)
Winds: from the ENE (60 degrees) at 7 MPH (6 knots; 3.1 m/s)
Visibility: 6 or more miles (10+ km)
Ceiling: 800 feet AGL
Clouds: broken clouds at 800 feet AGL
Weather: no significant weather observed at this time

METAR text: ZSPD 012130Z 08003MPS 9999 BKN008 27/26 Q1000 NOSIG
Conditions at: ZSPD (SHANGHAI/PUDONG , CN) observed 2130 UTC 01 August 2021
Temperature: 27.0°C (81°F)
Dewpoint: 26.0°C (79°F) [RH = 94%]
Pressure (altimeter): 29.53 inches Hg (1000.0 mb)
Winds: from the E (80 degrees) at 7 MPH (6 knots; 3.1 m/s)
Visibility: 6 or more miles (10+ km)
Ceiling: 800 feet AGL
Clouds: broken clouds at 800 feet AGL
Weather: no significant weather observed at this time

Forecast for: ZSPD (SHANGHAI/PUDONG , CN)
Text: TAF ZSPD 012103Z 0200/0224 11004MPS 6000 BKN015 TX32/0206Z TN26/0220Z
Forecast period: 0000 UTC 02 August 2021 to 0000 UTC 03 August 2021
Forecast type: FROM: standard forecast or significant change
Winds: from the ESE (110 degrees) at 9 MPH (8 knots; 4.1 m/s)
Visibility: 4 miles (6 km)
Ceiling: 1500 feet AGL
Clouds: broken clouds at 1500 feet AGL
Weather: no significant weather forecast for this period
Text: TEMPO 0200/0206 SHRA BKN009 FEW030CB
Forecast period: 0000 to 0600 UTC 02 August 2021
Forecast type: TEMPORARY: The following changes expected for less than half the time period
Visibility: missing
Ceiling: 900 feet AGL
Clouds: broken clouds at 900 feet AGL
few clouds at 3000 feet AGL
Weather: SHRA  (rain showers)